Jump to content


Photo

Congonhas Agora!! 14:45 local do dia 10/03/2012


  • You cannot start a new topic
  • Please log in to reply
11 replies to this topic

#1 Mauro Silva

Mauro Silva
  • Membro Honorário
  • 1,664 posts
  • Gender:Male
  • Location:São Paulo
  • Interests:Me interesso pela VIDA !
  • Cidade/UF/País:São Paulo / S P / Brasil
  • Data de Nascimento:05/04/1961

Posted 10 de March de 2012 - 14:49

CB na Área!


O Bicho vai pegar!!!




  • Nelson 707, Mills, Bonotto and 3 others like this

#2 Mauro Silva

Mauro Silva
  • Membro Honorário
  • 1,664 posts
  • Gender:Male
  • Location:São Paulo
  • Interests:Me interesso pela VIDA !
  • Cidade/UF/País:São Paulo / S P / Brasil
  • Data de Nascimento:05/04/1961

Posted 10 de March de 2012 - 15:03

Aeroporto Fechado!!!

#3 Mauro Silva

Mauro Silva
  • Membro Honorário
  • 1,664 posts
  • Gender:Male
  • Location:São Paulo
  • Interests:Me interesso pela VIDA !
  • Cidade/UF/País:São Paulo / S P / Brasil
  • Data de Nascimento:05/04/1961

Posted 10 de March de 2012 - 15:05

Chuva Forte e Turbulência Forte!

Previsão de Abertura, somente depois de verificar a contaminação da Pista, após o término da chuva!

Abc

Mauro

#4 Mauro Silva

Mauro Silva
  • Membro Honorário
  • 1,664 posts
  • Gender:Male
  • Location:São Paulo
  • Interests:Me interesso pela VIDA !
  • Cidade/UF/País:São Paulo / S P / Brasil
  • Data de Nascimento:05/04/1961

Posted 10 de March de 2012 - 15:16

Pessoal, apesar de saber que o Termo "Fechado" não se usa, ou seja, o correto é "Operando abaixo dos Mínimos", foi o que a Operadora da Torre falou para mim Ok?

Deve ter usado o Termo para justificar a Impraticabilidade de uso da Pista.


A torre não autorizou o pouso de um Helicóptero, fazendo ele Alternar! Quem mandou não ficar ligado no CR? kkk


Apesar de a Visibilidade Horizontal estar melhor, ainda está abaixo dos mínimos, mas daqui a pouco vai abrir!

Abc
  • Marcus Vinicius likes this

#5 Mauro Silva

Mauro Silva
  • Membro Honorário
  • 1,664 posts
  • Gender:Male
  • Location:São Paulo
  • Interests:Me interesso pela VIDA !
  • Cidade/UF/País:São Paulo / S P / Brasil
  • Data de Nascimento:05/04/1961

Posted 10 de March de 2012 - 15:22

Liberado o Pouso para Helicópteros, aproximação para a Pista 17, para Aviões ainda Fechado por Pista Encharcada!

#6 Safe Flight

Safe Flight
  • Usuários
  • 2,315 posts
  • Gender:Male
  • Location:CNF
  • Cidade/UF/País:Brasil
  • Data de Nascimento:18/09/1991

Posted 10 de March de 2012 - 15:28

10/03/2012 SBSP 101600Z METAR SBSP 101600Z 30006KT 9999 BKN040 FEW045TCU 29/16 Q1018=
10/03/2012 SBSP 101700Z METAR SBSP 101700Z 33007KT 9999 -TSRA BKN040 FEW045CB 29/17 Q1017=
10/03/2012 SBSP 101720Z SPECI SBSP 101720Z 12013KT 9000 -TSRA BKN040 SCT045CB 24/18 Q1018 WS R35=
10/03/2012 SBSP 101800Z METAR SBSP 101800Z 21016G32KT 1200 R17/1200 R35/1300 +TSRA BKN013 SCT 040 FEW045CB 20/18 Q1019=

#7 Mauro Silva

Mauro Silva
  • Membro Honorário
  • 1,664 posts
  • Gender:Male
  • Location:São Paulo
  • Interests:Me interesso pela VIDA !
  • Cidade/UF/País:São Paulo / S P / Brasil
  • Data de Nascimento:05/04/1961

Posted 10 de March de 2012 - 15:32

Acho melhor o Pessoal do Rodo começar a trabalhar!

Visibilidade horizontal acima de 3 km e nada!

As Prateleiras devem estar Lotadas!

#8 Safe Flight

Safe Flight
  • Usuários
  • 2,315 posts
  • Gender:Male
  • Location:CNF
  • Cidade/UF/País:Brasil
  • Data de Nascimento:18/09/1991

Posted 10 de March de 2012 - 15:50

Pois é, só a 17L que esta funcional. A 17R continua com poças d'água.

#9 Safe Flight

Safe Flight
  • Usuários
  • 2,315 posts
  • Gender:Male
  • Location:CNF
  • Cidade/UF/País:Brasil
  • Data de Nascimento:18/09/1991

Posted 10 de March de 2012 - 15:53

Infraero liberou a 17R, o PT-WMA que estava na APP para 17L segue para 17R.

#10 Mauro Silva

Mauro Silva
  • Membro Honorário
  • 1,664 posts
  • Gender:Male
  • Location:São Paulo
  • Interests:Me interesso pela VIDA !
  • Cidade/UF/País:São Paulo / S P / Brasil
  • Data de Nascimento:05/04/1961

Posted 10 de March de 2012 - 15:58

50 minutos depois... e nada!

#11 Mauro Silva

Mauro Silva
  • Membro Honorário
  • 1,664 posts
  • Gender:Male
  • Location:São Paulo
  • Interests:Me interesso pela VIDA !
  • Cidade/UF/País:São Paulo / S P / Brasil
  • Data de Nascimento:05/04/1961

Posted 10 de March de 2012 - 16:08

Geral operando 35 R

#12 Mauro Silva

Mauro Silva
  • Membro Honorário
  • 1,664 posts
  • Gender:Male
  • Location:São Paulo
  • Interests:Me interesso pela VIDA !
  • Cidade/UF/País:São Paulo / S P / Brasil
  • Data de Nascimento:05/04/1961

Posted 10 de March de 2012 - 16:13

Comercial Operando 35 L.

Aeroporto Operacional de novo!

Saio do meu Posto, trocando o Turno. KKKK

Bons Voos

Mauro